createdAt,value
2022-09-02T00:01:39.500Z,10.34
2022-09-02T00:04:10.737Z,10.38
2022-09-02T00:06:38.456Z,10.34
2022-09-02T00:09:07.598Z,10.38
2022-09-02T00:11:36.940Z,10.39
2022-09-02T00:14:06.987Z,10.35
2022-09-02T00:16:34.480Z,10.34
2022-09-02T00:19:02.872Z,10.32
2022-09-02T00:21:31.430Z,10.28
2022-09-02T00:23:58.757Z,10.30
2022-09-02T00:26:26.120Z,10.32
2022-09-02T00:28:55.955Z,10.37
2022-09-02T00:31:27.507Z,10.39
2022-09-02T00:33:55.479Z,10.33
2022-09-02T00:36:22.807Z,10.34
2022-09-02T00:38:50.178Z,10.34
2022-09-02T00:41:21.279Z,10.41
2022-09-02T00:43:55.420Z,10.38
2022-09-02T00:46:25.255Z,10.40
2022-09-02T00:49:08.659Z,10.40
2022-09-02T00:51:48.240Z,10.42
2022-09-02T00:54:19.590Z,10.45
2022-09-02T00:56:48.064Z,10.41
2022-09-02T00:59:23.937Z,10.37
2022-09-02T01:01:51.022Z,10.35
2022-09-02T01:04:18.303Z,10.36
2022-09-02T01:06:45.872Z,10.33
2022-09-02T01:09:16.566Z,10.32
2022-09-02T01:11:48.268Z,10.37
2022-09-02T01:14:16.731Z,10.38
2022-09-02T01:16:51.191Z,10.41
2022-09-02T01:19:33.719Z,10.47
2022-09-02T01:22:00.990Z,10.50
2022-09-02T01:24:33.139Z,10.47
2022-09-02T01:27:00.519Z,10.43
2022-09-02T01:29:28.972Z,10.40
2022-09-02T01:31:56.230Z,10.43
2022-09-02T01:34:23.508Z,10.46
2022-09-02T01:36:51.165Z,10.51
2022-09-02T01:39:18.497Z,10.52
2022-09-02T01:41:47.770Z,10.40
2022-09-02T01:44:17.999Z,10.27
2022-09-02T01:46:49.391Z,10.11
2022-09-02T01:49:16.592Z,10.13
2022-09-02T01:51:45.123Z,10.18
2022-09-02T01:54:12.230Z,10.15
2022-09-02T01:56:39.603Z,10.13
2022-09-02T01:59:08.100Z,10.04
2022-09-02T02:01:35.921Z,10.00
2022-09-02T02:04:04.362Z,9.97
2022-09-02T02:06:32.598Z,9.99
2022-09-02T02:08:59.977Z,9.96
2022-09-02T02:11:27.716Z,9.98
2022-09-02T02:13:59.234Z,9.98
2022-09-02T02:16:26.612Z,10.03
2022-09-02T02:18:53.747Z,10.02
2022-09-02T02:21:21.032Z,10.04
2022-09-02T02:23:48.177Z,10.05
2022-09-02T02:26:15.313Z,10.02
2022-09-02T02:28:43.236Z,10.05
2022-09-02T02:31:10.782Z,10.02
2022-09-02T02:33:38.480Z,10.03
2022-09-02T02:36:07.939Z,10.00
2022-09-02T02:38:36.982Z,9.92
2022-09-02T02:41:06.564Z,9.86
2022-09-02T02:43:35.667Z,9.87
2022-09-02T02:46:03.679Z,9.85
2022-09-02T02:48:31.063Z,9.83
2022-09-02T02:50:58.131Z,9.85
2022-09-02T02:53:25.290Z,9.87
2022-09-02T02:55:52.354Z,9.88
2022-09-02T02:58:21.829Z,9.95
2022-09-02T03:00:54.860Z,9.99
2022-09-02T03:03:22.770Z,10.03
2022-09-02T03:05:53.531Z,9.96
2022-09-02T03:08:21.937Z,9.99
2022-09-02T03:10:54.266Z,10.02
2022-09-02T03:13:24.838Z,10.04
2022-09-02T03:15:52.520Z,10.07
2022-09-02T03:18:21.663Z,10.05
2022-09-02T03:20:50.081Z,10.03
2022-09-02T03:23:20.811Z,10.05
2022-09-02T03:25:50.126Z,10.07
2022-09-02T03:28:26.675Z,10.12
2022-09-02T03:30:54.224Z,10.09
2022-09-02T03:33:22.810Z,10.07
2022-09-02T03:35:50.197Z,10.14
2022-09-02T03:38:17.252Z,10.21
2022-09-02T03:40:45.531Z,10.23
2022-09-02T03:43:12.795Z,10.25
2022-09-02T03:45:42.069Z,10.33
2022-09-02T03:48:13.703Z,10.41
2022-09-02T03:50:44.532Z,10.48
2022-09-02T03:53:20.008Z,10.51
2022-09-02T03:55:52.322Z,10.57
2022-09-02T03:58:23.260Z,10.60
2022-09-02T04:00:54.391Z,10.70
2022-09-02T04:03:23.636Z,10.74
2022-09-02T04:05:52.575Z,10.77
2022-09-02T04:08:22.365Z,10.74
2022-09-02T04:10:51.395Z,10.84
2022-09-02T04:13:19.014Z,11.08
2022-09-02T04:15:49.242Z,11.11
2022-09-02T04:18:19.046Z,11.10
2022-09-02T04:20:46.376Z,11.08
2022-09-02T04:23:15.813Z,11.05
2022-09-02T04:25:44.787Z,11.02
2022-09-02T04:28:14.326Z,11.00
2022-09-02T04:30:42.575Z,10.92
2022-09-02T04:33:14.331Z,10.86
2022-09-02T04:35:48.375Z,10.67
2022-09-02T04:38:18.946Z,10.63
2022-09-02T04:40:48.194Z,10.68
2022-09-02T04:43:18.237Z,10.79
2022-09-02T04:45:46.941Z,10.92
2022-09-02T04:48:16.414Z,11.06
2022-09-02T04:50:44.160Z,11.15
2022-09-02T04:53:12.556Z,11.14
2022-09-02T04:55:42.479Z,11.07
2022-09-02T04:58:11.830Z,11.15
2022-09-02T05:00:40.138Z,11.14
2022-09-02T05:03:11.902Z,11.17
2022-09-02T05:05:40.543Z,11.20
2022-09-02T05:08:10.157Z,11.17
2022-09-02T05:10:40.312Z,11.17
2022-09-02T05:13:07.365Z,11.13
2022-09-02T05:15:40.969Z,11.10
2022-09-02T05:18:10.019Z,11.08
2022-09-02T05:20:39.980Z,11.20
2022-09-02T05:23:07.358Z,11.31
2022-09-02T05:25:34.930Z,11.30
2022-09-02T05:28:02.110Z,11.27
2022-09-02T05:30:29.462Z,11.34
2022-09-02T05:32:57.303Z,11.33
2022-09-02T05:35:24.512Z,11.40
2022-09-02T05:37:56.303Z,11.46
2022-09-02T05:40:28.864Z,11.65
2022-09-02T05:42:57.352Z,11.96
2022-09-02T05:45:24.619Z,12.28
2022-09-02T05:47:52.381Z,12.50
2022-09-02T05:50:20.756Z,12.82
2022-09-02T05:52:52.387Z,13.06
2022-09-02T05:55:21.423Z,13.15
2022-09-02T05:57:49.405Z,13.06
2022-09-02T06:00:17.899Z,12.75
2022-09-02T06:02:56.237Z,12.61
2022-09-02T06:05:30.028Z,12.59
2022-09-02T06:08:05.899Z,12.77
2022-09-02T06:10:33.986Z,12.72
2022-09-02T06:13:01.587Z,12.72
2022-09-02T06:15:32.282Z,12.77
2022-09-02T06:18:03.925Z,12.62
2022-09-02T06:20:41.836Z,12.41
2022-09-02T06:23:09.447Z,12.41
2022-09-02T06:25:40.619Z,12.31
2022-09-02T06:28:09.390Z,12.26
2022-09-02T06:30:42.803Z,12.25
2022-09-02T06:33:11.521Z,12.23
2022-09-02T06:35:44.323Z,12.32
2022-09-02T06:38:14.086Z,12.28
2022-09-02T06:40:52.073Z,12.25
2022-09-02T06:43:25.469Z,12.33
2022-09-02T06:46:04.314Z,12.46
2022-09-02T06:48:32.982Z,12.52
2022-09-02T06:51:01.504Z,13.26
2022-09-02T06:53:28.568Z,14.39
2022-09-02T06:55:56.295Z,14.78
2022-09-02T06:58:23.280Z,15.21
2022-09-02T07:00:50.354Z,16.14
2022-09-02T07:03:46.812Z,16.22
2022-09-02T07:06:15.543Z,16.12
2022-09-02T07:08:46.932Z,16.51
2022-09-02T07:11:21.386Z,16.56
2022-09-02T07:13:50.501Z,16.54
2022-09-02T07:16:27.012Z,16.82
2022-09-02T07:18:57.881Z,16.45
2022-09-02T07:21:26.110Z,15.88
2022-09-02T07:23:53.624Z,15.37
2022-09-02T07:26:20.889Z,15.18
2022-09-02T07:28:50.269Z,17.07
2022-09-02T07:31:18.217Z,18.98
2022-09-02T07:33:49.893Z,20.00
2022-09-02T07:36:21.683Z,19.33
2022-09-02T07:38:49.457Z,20.36
2022-09-02T07:41:16.608Z,20.41
2022-09-02T07:43:46.258Z,20.61
2022-09-02T07:46:15.926Z,19.99
2022-09-02T07:48:44.149Z,19.78
2022-09-02T07:51:12.010Z,18.97
2022-09-02T07:53:40.667Z,18.35
2022-09-02T07:56:07.779Z,17.47
2022-09-02T07:58:35.926Z,16.76
2022-09-02T08:01:03.913Z,16.27
2022-09-02T08:03:31.281Z,15.65
2022-09-02T08:05:59.560Z,15.93
2022-09-02T08:08:27.697Z,16.79
2022-09-02T08:10:55.607Z,19.15
2022-09-02T08:13:22.978Z,21.57
2022-09-02T08:15:54.590Z,23.33
2022-09-02T08:18:22.525Z,24.82
2022-09-02T08:20:49.897Z,25.85
2022-09-02T08:23:36.188Z,26.24
2022-09-02T08:26:05.766Z,26.71
2022-09-02T08:28:33.663Z,25.58
2022-09-02T08:31:05.006Z,24.49
2022-09-02T08:33:32.087Z,23.19
2022-09-02T08:36:09.502Z,24.56
2022-09-02T08:38:37.070Z,24.25
2022-09-02T08:41:22.466Z,25.77
2022-09-02T08:43:51.763Z,27.32
2022-09-02T08:46:22.135Z,28.28
2022-09-02T08:49:14.388Z,28.56
2022-09-02T08:51:53.139Z,28.18
2022-09-02T08:54:32.467Z,28.46
2022-09-02T08:57:00.016Z,28.69
2022-09-02T08:59:30.450Z,28.90
2022-09-02T09:02:12.674Z,27.56
2022-09-02T09:05:09.528Z,25.38
2022-09-02T09:07:55.230Z,25.83
2022-09-02T09:11:02.322Z,25.15
2022-09-02T09:13:45.176Z,26.46
2022-09-02T09:16:18.232Z,26.90
2022-09-02T09:19:09.349Z,27.25
2022-09-02T09:21:37.189Z,25.34
2022-09-02T09:24:10.941Z,24.88
2022-09-02T09:26:41.154Z,25.26
2022-09-02T09:29:08.397Z,24.31
2022-09-02T09:31:36.405Z,24.11
2022-09-02T09:34:09.565Z,23.70
2022-09-02T09:36:39.852Z,22.87
2022-09-02T09:39:20.358Z,21.63
2022-09-02T09:41:49.138Z,20.79
2022-09-02T09:44:45.784Z,19.93
2022-09-02T09:47:25.752Z,19.13
2022-09-02T09:49:54.112Z,19.63
2022-09-02T09:52:26.064Z,19.81
2022-09-02T09:55:20.919Z,20.68
2022-09-02T09:57:53.491Z,20.83
2022-09-02T10:00:32.204Z,21.19
2022-09-02T10:03:03.662Z,21.25
2022-09-02T10:05:37.577Z,21.35
2022-09-02T10:08:26.267Z,21.07
2022-09-02T10:11:01.627Z,20.24
2022-09-02T10:13:34.498Z,19.55
2022-09-02T10:16:27.833Z,18.94
2022-09-02T10:19:21.138Z,18.58
2022-09-02T10:22:09.806Z,18.58
2022-09-02T10:24:36.742Z,18.44
2022-09-02T10:27:09.308Z,19.09
2022-09-02T10:29:59.155Z,19.38
2022-09-02T10:32:37.955Z,19.24
2022-09-02T10:35:43.148Z,18.75
2022-09-02T10:38:39.606Z,18.12
2022-09-02T10:41:22.015Z,17.71
2022-09-02T10:44:31.500Z,18.28
2022-09-02T10:47:01.379Z,18.44
2022-09-02T10:49:44.882Z,18.43
2022-09-02T10:52:43.308Z,18.08
2022-09-02T10:55:54.903Z,18.16
2022-09-02T10:58:34.585Z,18.39
2022-09-02T11:01:03.515Z,17.78
2022-09-02T11:03:51.437Z,17.50
2022-09-02T11:06:58.809Z,17.23
2022-09-02T11:12:28.003Z,16.88
2022-09-02T11:15:16.087Z,16.72
2022-09-02T11:18:17.274Z,16.53
2022-09-02T11:20:55.011Z,16.27
2022-09-02T11:23:30.806Z,16.20
2022-09-02T11:26:04.833Z,16.01
2022-09-02T11:28:56.112Z,15.80
2022-09-02T11:31:48.892Z,15.67
2022-09-02T11:34:24.883Z,15.52
2022-09-02T11:36:52.331Z,15.16
2022-09-02T11:39:54.098Z,15.11
2022-09-02T11:42:48.884Z,15.05
2022-09-02T11:45:24.748Z,14.98
2022-09-02T11:48:03.794Z,15.05
2022-09-02T11:50:47.333Z,15.15
2022-09-02T11:53:29.119Z,15.27
2022-09-02T11:56:03.425Z,15.36
2022-09-02T11:58:58.424Z,15.36
2022-09-02T12:01:43.865Z,15.47
2022-09-02T12:07:09.576Z,15.30
2022-09-02T12:09:48.147Z,15.39
2022-09-02T12:12:37.401Z,15.59
2022-09-02T12:15:11.578Z,15.44
2022-09-02T12:17:50.071Z,15.40
2022-09-02T12:20:40.196Z,15.30
2022-09-02T12:23:49.623Z,15.44
2022-09-02T12:26:21.943Z,15.48
2022-09-02T12:28:50.982Z,15.32
2022-09-02T12:31:42.103Z,15.35
2022-09-02T12:34:21.517Z,15.46
2022-09-02T12:36:51.146Z,15.48
2022-09-02T12:39:32.980Z,15.48
2022-09-02T12:42:11.125Z,15.71
2022-09-02T12:44:53.096Z,15.81
2022-09-02T12:47:20.556Z,15.66
2022-09-02T12:50:10.841Z,15.58
2022-09-02T12:52:42.728Z,15.61
2022-09-02T12:55:32.121Z,15.69
2022-09-02T12:58:14.724Z,15.73
2022-09-02T13:00:58.830Z,15.65
2022-09-02T13:03:28.651Z,15.45
2022-09-02T13:06:05.209Z,15.32
2022-09-02T13:08:51.500Z,15.22
2022-09-02T13:11:34.390Z,15.19
2022-09-02T13:14:35.224Z,15.26
2022-09-02T13:17:51.400Z,15.30
2022-09-02T13:20:36.759Z,15.42
2022-09-02T13:23:31.553Z,15.34
2022-09-02T13:26:47.967Z,15.14
2022-09-02T13:29:26.429Z,14.96
2022-09-02T13:32:26.645Z,14.94
2022-09-02T13:34:59.312Z,15.00
2022-09-02T13:37:41.286Z,15.10
2022-09-02T13:40:18.756Z,15.11
2022-09-02T13:42:58.146Z,14.95
2022-09-02T13:45:31.045Z,14.86
2022-09-02T13:48:00.957Z,14.72
2022-09-02T13:50:30.982Z,14.60
2022-09-02T13:56:00.333Z,14.48
2022-09-02T13:58:30.228Z,14.41
2022-09-02T14:01:02.332Z,14.28
2022-09-02T14:03:33.053Z,14.28
2022-09-02T14:06:01.528Z,14.18
2022-09-02T14:08:31.665Z,14.20
2022-09-02T14:11:07.379Z,14.29
2022-09-02T14:13:35.811Z,14.43
2022-09-02T14:16:27.434Z,14.54
2022-09-02T14:19:17.483Z,14.49
2022-09-02T14:21:53.449Z,14.44
2022-09-02T14:24:23.756Z,14.40
2022-09-02T14:26:56.284Z,14.35
2022-09-02T14:29:24.607Z,14.34
2022-09-02T14:32:22.645Z,14.28
2022-09-02T14:35:08.511Z,14.22
2022-09-02T14:37:53.222Z,14.14
2022-09-02T14:40:33.029Z,14.10
2022-09-02T14:43:01.424Z,14.04
2022-09-02T14:45:32.114Z,13.98
2022-09-02T14:48:01.967Z,13.95
2022-09-02T14:50:41.431Z,13.85
2022-09-02T14:53:20.590Z,13.73
2022-09-02T14:55:55.039Z,13.71
2022-09-02T14:58:27.003Z,13.78
2022-09-02T15:00:59.284Z,13.81
2022-09-02T15:03:29.227Z,13.81
2022-09-02T15:05:56.485Z,13.88
2022-09-02T15:08:28.784Z,13.89
2022-09-02T15:11:07.159Z,13.87
2022-09-02T15:13:49.139Z,13.80
2022-09-02T15:16:18.191Z,13.81
2022-09-02T15:18:47.934Z,13.83
2022-09-02T15:21:16.019Z,13.73
2022-09-02T15:23:45.708Z,13.68
2022-09-02T15:26:16.781Z,13.56
2022-09-02T15:28:47.846Z,13.49
2022-09-02T15:31:16.865Z,13.45
2022-09-02T15:33:49.632Z,13.38
2022-09-02T15:36:17.044Z,13.29
2022-09-02T15:38:44.391Z,13.13
2022-09-02T15:41:28.400Z,13.01
2022-09-02T15:44:01.706Z,12.90
2022-09-02T15:46:31.492Z,12.81
2022-09-02T15:49:04.298Z,12.75
2022-09-02T15:51:32.664Z,12.73
2022-09-02T15:54:02.939Z,12.62
2022-09-02T15:57:44.695Z,12.57
2022-09-02T16:00:12.429Z,12.51
2022-09-02T16:02:39.951Z,12.47
2022-09-02T16:05:07.431Z,12.43
2022-09-02T16:08:11.678Z,12.48
2022-09-02T16:10:40.360Z,12.52
2022-09-02T16:13:08.127Z,12.55
2022-09-02T16:15:35.090Z,12.51
2022-09-02T16:18:05.312Z,12.47
2022-09-02T16:20:32.614Z,12.40
2022-09-02T16:22:59.816Z,12.35
2022-09-02T16:25:27.967Z,12.28
2022-09-02T16:27:56.849Z,12.23
2022-09-02T16:30:24.354Z,12.20
2022-09-02T16:32:52.205Z,12.14
2022-09-02T16:35:19.214Z,12.13
2022-09-02T16:37:46.687Z,12.11
2022-09-02T16:40:21.717Z,12.06
2022-09-02T16:42:52.380Z,12.01
2022-09-02T16:45:22.353Z,11.99
2022-09-02T16:47:56.392Z,12.05
2022-09-02T16:50:31.683Z,11.96
2022-09-02T16:53:00.725Z,12.04
2022-09-02T16:55:28.464Z,12.09
2022-09-02T16:57:55.498Z,12.07
2022-09-02T17:00:24.058Z,12.07
2022-09-02T17:02:51.444Z,12.09
2022-09-02T17:05:18.907Z,12.10
2022-09-02T17:07:46.860Z,12.10
2022-09-02T17:10:13.888Z,12.12
2022-09-02T17:12:43.134Z,12.15
2022-09-02T17:15:10.656Z,12.13
2022-09-02T17:17:42.448Z,12.17
2022-09-02T17:20:09.928Z,12.12
2022-09-02T17:22:36.944Z,12.10
2022-09-02T17:25:07.002Z,12.10
2022-09-02T17:27:36.384Z,12.07
2022-09-02T17:30:09.672Z,12.05
2022-09-02T17:32:43.361Z,12.09
2022-09-02T17:35:14.542Z,12.07
2022-09-02T17:37:42.006Z,12.07
2022-09-02T17:40:37.204Z,12.00
2022-09-02T17:43:04.452Z,11.93
2022-09-02T17:45:32.200Z,11.98
2022-09-02T17:48:13.502Z,12.03
2022-09-02T17:50:49.332Z,12.05
2022-09-02T17:53:18.636Z,12.04
2022-09-02T17:55:46.095Z,11.99
2022-09-02T17:58:21.418Z,12.02
2022-09-02T18:00:56.877Z,12.05
2022-09-02T18:03:40.224Z,12.03
2022-09-02T18:06:21.911Z,12.03
2022-09-02T18:08:56.340Z,12.07
2022-09-02T18:11:23.381Z,12.11
2022-09-02T18:14:14.841Z,12.11
2022-09-02T18:17:12.852Z,12.14
2022-09-02T18:20:12.417Z,12.13
2022-09-02T18:23:18.378Z,12.14
2022-09-02T18:26:16.223Z,12.13
2022-09-02T18:28:56.637Z,12.19
2022-09-02T18:31:23.890Z,12.20
2022-09-02T18:34:05.589Z,12.16
2022-09-02T18:36:50.769Z,12.16
2022-09-02T18:39:45.213Z,12.11
2022-09-02T18:42:24.231Z,12.10
2022-09-02T18:45:09.407Z,12.06
2022-09-02T18:48:01.390Z,11.99
2022-09-02T18:50:52.126Z,11.91
2022-09-02T18:53:24.816Z,11.83
2022-09-02T18:55:56.829Z,11.83
2022-09-02T18:58:47.177Z,11.83
2022-09-02T19:01:20.729Z,11.79
2022-09-02T19:03:48.981Z,11.76
2022-09-02T19:06:21.940Z,11.73
2022-09-02T19:08:59.414Z,11.70
2022-09-02T19:11:27.479Z,11.68
2022-09-02T19:14:09.277Z,11.67
2022-09-02T19:16:38.608Z,11.62
2022-09-02T19:19:10.574Z,11.63
2022-09-02T19:21:48.220Z,11.59
2022-09-02T19:24:24.795Z,11.54
2022-09-02T19:27:01.433Z,11.51
2022-09-02T19:29:29.077Z,11.44
2022-09-02T19:31:56.206Z,11.36
2022-09-02T19:34:30.596Z,11.28
2022-09-02T19:36:57.724Z,11.21
2022-09-02T19:39:26.934Z,11.17
2022-09-02T19:41:54.811Z,11.08
2022-09-02T19:44:22.094Z,10.98
2022-09-02T19:47:49.973Z,10.91
2022-09-02T19:49:37.198Z,10.89
2022-09-02T19:52:07.928Z,10.83
2022-09-02T19:54:35.046Z,10.80
2022-09-02T19:57:03.008Z,10.75
2022-09-02T19:59:33.222Z,10.71
2022-09-02T20:02:02.705Z,10.67
2022-09-02T20:04:33.428Z,10.69
2022-09-02T20:07:01.115Z,10.63
2022-09-02T20:09:30.389Z,10.55
2022-09-02T20:11:59.207Z,10.53
2022-09-02T20:14:26.489Z,10.48
2022-09-02T20:16:58.178Z,10.43
2022-09-02T20:19:26.792Z,10.37
2022-09-02T20:21:54.208Z,10.35
2022-09-02T20:24:28.010Z,10.33
2022-09-02T20:27:15.498Z,10.28
2022-09-02T20:29:59.200Z,10.22
2022-09-02T20:32:29.108Z,10.21
2022-09-02T20:35:03.450Z,10.18
2022-09-02T20:37:51.926Z,10.12
2022-09-02T20:41:03.927Z,10.10
2022-09-02T20:44:09.196Z,10.05
2022-09-02T20:46:56.615Z,10.04
2022-09-02T20:49:37.371Z,9.99
2022-09-02T20:52:16.642Z,9.98
2022-09-02T20:54:59.380Z,9.96
2022-09-02T20:57:51.622Z,9.92
2022-09-02T21:00:23.001Z,9.89
2022-09-02T21:03:05.524Z,9.85
2022-09-02T21:05:40.890Z,9.85
2022-09-02T21:08:22.333Z,9.85
2022-09-02T21:10:54.595Z,9.77
2022-09-02T21:13:34.518Z,9.78
2022-09-02T21:16:11.473Z,9.77
2022-09-02T21:19:20.478Z,9.75
2022-09-02T21:22:05.968Z,9.69
2022-09-02T21:24:38.362Z,9.70
2022-09-02T21:27:19.647Z,9.67
2022-09-02T21:30:02.113Z,9.64
2022-09-02T21:32:42.197Z,9.60
2022-09-02T21:35:17.569Z,9.61
2022-09-02T21:37:48.513Z,9.61
2022-09-02T21:40:20.306Z,9.58
2022-09-02T21:42:54.612Z,9.52
2022-09-02T21:45:42.910Z,9.55
2022-09-02T21:48:55.509Z,9.54
2022-09-02T21:51:49.148Z,9.50
2022-09-02T21:54:45.494Z,9.46
2022-09-02T21:57:33.008Z,9.45
2022-09-02T22:00:09.458Z,9.37
2022-09-02T22:02:58.244Z,9.38
2022-09-02T22:05:34.122Z,9.36
2022-09-02T22:08:12.102Z,9.37
2022-09-02T22:10:54.214Z,9.34
2022-09-02T22:13:22.631Z,9.29
2022-09-02T22:16:19.965Z,9.32
2022-09-02T22:19:04.033Z,9.29
2022-09-02T22:21:51.589Z,9.27
2022-09-02T22:24:43.341Z,9.24
2022-09-02T22:27:20.327Z,9.22
2022-09-02T22:30:03.122Z,9.17
2022-09-02T22:32:39.364Z,9.11
2022-09-02T22:35:09.572Z,9.14
2022-09-02T22:37:55.116Z,9.10
2022-09-02T22:40:25.306Z,9.07
2022-09-02T22:42:58.011Z,9.07
2022-09-02T22:45:55.875Z,9.05
2022-09-02T22:48:55.205Z,9.05
2022-09-02T22:52:03.180Z,9.02
2022-09-02T22:54:32.139Z,9.00
2022-09-02T22:57:02.098Z,8.97
2022-09-02T22:59:41.959Z,8.99
2022-09-02T23:02:23.913Z,8.96
2022-09-02T23:05:38.579Z,8.96
2022-09-02T23:08:08.061Z,8.93
2022-09-02T23:11:06.845Z,8.95
2022-09-02T23:13:53.346Z,8.93
2022-09-02T23:16:46.750Z,8.92
2022-09-02T23:19:43.784Z,8.91
2022-09-02T23:22:19.742Z,8.88
2022-09-02T23:24:57.810Z,8.86
2022-09-02T23:27:33.456Z,8.84
2022-09-02T23:30:01.855Z,8.84
2022-09-02T23:32:44.126Z,8.84
2022-09-02T23:35:14.200Z,8.82
2022-09-02T23:38:24.315Z,8.79
2022-09-02T23:41:14.092Z,8.77
2022-09-02T23:43:43.858Z,8.76
2022-09-02T23:47:26.337Z,8.77
2022-09-02T23:50:08.807Z,8.72
2022-09-02T23:53:09.091Z,8.71
2022-09-02T23:56:08.291Z,8.68
2022-09-02T23:58:59.634Z,8.64
